sensor_id;sensor_type;location;lat;lon;timestamp;P1;durP1;ratioP1;P2;durP2;ratioP2
7074;SDS011;3578;51.568;6.932;2023-07-09T00:02:20;7.77;;;6.80;;
7074;SDS011;3578;51.568;6.932;2023-07-09T00:04:48;11.40;;;8.17;;
7074;SDS011;3578;51.568;6.932;2023-07-09T00:07:21;8.40;;;7.37;;
7074;SDS011;3578;51.568;6.932;2023-07-09T00:09:53;8.67;;;7.80;;
7074;SDS011;3578;51.568;6.932;2023-07-09T00:12:20;9.50;;;8.03;;
7074;SDS011;3578;51.568;6.932;2023-07-09T00:14:47;9.90;;;8.10;;
7074;SDS011;3578;51.568;6.932;2023-07-09T00:17:18;9.93;;;7.70;;
7074;SDS011;3578;51.568;6.932;2023-07-09T00:19:50;9.17;;;7.80;;
7074;SDS011;3578;51.568;6.932;2023-07-09T00:22:18;8.90;;;6.87;;
7074;SDS011;3578;51.568;6.932;2023-07-09T00:24:46;13.87;;;7.90;;
7074;SDS011;3578;51.568;6.932;2023-07-09T00:27:16;10.20;;;8.40;;
7074;SDS011;3578;51.568;6.932;2023-07-09T00:29:46;8.43;;;7.67;;
7074;SDS011;3578;51.568;6.932;2023-07-09T00:32:13;8.23;;;7.20;;
7074;SDS011;3578;51.568;6.932;2023-07-09T00:34:42;8.90;;;8.10;;
7074;SDS011;3578;51.568;6.932;2023-07-09T00:37:13;12.30;;;7.70;;
7074;SDS011;3578;51.568;6.932;2023-07-09T00:39:43;9.70;;;8.47;;
7074;SDS011;3578;51.568;6.932;2023-07-09T00:42:11;8.43;;;7.43;;
7074;SDS011;3578;51.568;6.932;2023-07-09T00:44:42;8.13;;;7.23;;
7074;SDS011;3578;51.568;6.932;2023-07-09T00:47:13;8.37;;;7.47;;
7074;SDS011;3578;51.568;6.932;2023-07-09T00:50:06;8.60;;;7.70;;
7074;SDS011;3578;51.568;6.932;2023-07-09T00:52:39;11.73;;;7.13;;
7074;SDS011;3578;51.568;6.932;2023-07-09T00:55:13;8.10;;;7.30;;
7074;SDS011;3578;51.568;6.932;2023-07-09T00:57:46;9.20;;;7.87;;
7074;SDS011;3578;51.568;6.932;2023-07-09T01:00:21;8.83;;;7.50;;
7074;SDS011;3578;51.568;6.932;2023-07-09T01:02:53;8.83;;;7.77;;
7074;SDS011;3578;51.568;6.932;2023-07-09T01:05:23;10.83;;;8.20;;
7074;SDS011;3578;51.568;6.932;2023-07-09T01:07:50;10.93;;;7.30;;
7074;SDS011;3578;51.568;6.932;2023-07-09T01:10:19;8.20;;;7.43;;
7074;SDS011;3578;51.568;6.932;2023-07-09T01:12:46;7.83;;;7.03;;
7074;SDS011;3578;51.568;6.932;2023-07-09T01:15:16;8.77;;;7.33;;
7074;SDS011;3578;51.568;6.932;2023-07-09T01:17:43;12.17;;;8.07;;
7074;SDS011;3578;51.568;6.932;2023-07-09T01:20:14;8.10;;;7.37;;
7074;SDS011;3578;51.568;6.932;2023-07-09T01:22:47;9.20;;;7.13;;
7074;SDS011;3578;51.568;6.932;2023-07-09T01:25:16;7.70;;;6.97;;
7074;SDS011;3578;51.568;6.932;2023-07-09T01:27:44;9.77;;;7.20;;
7074;SDS011;3578;51.568;6.932;2023-07-09T01:30:24;9.07;;;7.60;;
7074;SDS011;3578;51.568;6.932;2023-07-09T01:32:57;8.33;;;7.33;;
7074;SDS011;3578;51.568;6.932;2023-07-09T01:35:27;8.93;;;7.43;;
7074;SDS011;3578;51.568;6.932;2023-07-09T01:37:59;7.37;;;6.67;;
7074;SDS011;3578;51.568;6.932;2023-07-09T01:40:28;8.57;;;7.50;;
7074;SDS011;3578;51.568;6.932;2023-07-09T01:42:56;8.03;;;7.07;;
7074;SDS011;3578;51.568;6.932;2023-07-09T01:45:25;9.80;;;7.60;;
7074;SDS011;3578;51.568;6.932;2023-07-09T01:47:52;8.23;;;7.43;;
7074;SDS011;3578;51.568;6.932;2023-07-09T01:50:20;10.03;;;8.70;;
7074;SDS011;3578;51.568;6.932;2023-07-09T01:52:49;8.43;;;7.53;;
7074;SDS011;3578;51.568;6.932;2023-07-09T01:55:18;9.07;;;8.13;;
7074;SDS011;3578;51.568;6.932;2023-07-09T01:57:45;12.97;;;8.47;;
7074;SDS011;3578;51.568;6.932;2023-07-09T02:00:14;11.10;;;7.63;;
7074;SDS011;3578;51.568;6.932;2023-07-09T02:02:43;8.77;;;7.97;;
7074;SDS011;3578;51.568;6.932;2023-07-09T02:05:12;10.43;;;8.70;;
7074;SDS011;3578;51.568;6.932;2023-07-09T02:07:41;8.60;;;7.70;;
7074;SDS011;3578;51.568;6.932;2023-07-09T02:10:09;11.43;;;8.30;;
7074;SDS011;3578;51.568;6.932;2023-07-09T02:12:39;10.83;;;8.03;;
7074;SDS011;3578;51.568;6.932;2023-07-09T02:15:06;9.60;;;8.20;;
7074;SDS011;3578;51.568;6.932;2023-07-09T02:17:35;7.47;;;6.77;;
7074;SDS011;3578;51.568;6.932;2023-07-09T02:20:02;10.13;;;7.60;;
7074;SDS011;3578;51.568;6.932;2023-07-09T02:22:31;9.57;;;6.97;;
7074;SDS011;3578;51.568;6.932;2023-07-09T02:24:58;7.80;;;7.10;;
7074;SDS011;3578;51.568;6.932;2023-07-09T02:27:26;9.27;;;7.60;;
7074;SDS011;3578;51.568;6.932;2023-07-09T02:29:55;9.30;;;7.80;;
7074;SDS011;3578;51.568;6.932;2023-07-09T02:32:23;9.03;;;8.13;;
7074;SDS011;3578;51.568;6.932;2023-07-09T02:34:52;13.43;;;7.30;;
7074;SDS011;3578;51.568;6.932;2023-07-09T02:37:21;12.80;;;7.70;;
7074;SDS011;3578;51.568;6.932;2023-07-09T02:39:50;12.77;;;7.90;;
7074;SDS011;3578;51.568;6.932;2023-07-09T02:42:18;12.10;;;7.63;;
7074;SDS011;3578;51.568;6.932;2023-07-09T02:44:47;8.53;;;7.63;;
7074;SDS011;3578;51.568;6.932;2023-07-09T02:47:16;10.30;;;7.53;;
7074;SDS011;3578;51.568;6.932;2023-07-09T02:49:43;8.87;;;8.00;;
7074;SDS011;3578;51.568;6.932;2023-07-09T02:52:10;11.50;;;8.30;;
7074;SDS011;3578;51.568;6.932;2023-07-09T02:54:37;11.50;;;8.60;;
7074;SDS011;3578;51.568;6.932;2023-07-09T02:57:04;9.23;;;7.90;;
7074;SDS011;3578;51.568;6.932;2023-07-09T02:59:32;9.10;;;8.17;;
7074;SDS011;3578;51.568;6.932;2023-07-09T03:01:59;9.23;;;7.93;;
7074;SDS011;3578;51.568;6.932;2023-07-09T03:04:28;7.73;;;7.00;;
7074;SDS011;3578;51.568;6.932;2023-07-09T03:06:57;9.17;;;8.20;;
7074;SDS011;3578;51.568;6.932;2023-07-09T03:09:24;10.60;;;7.40;;
7074;SDS011;3578;51.568;6.932;2023-07-09T03:11:52;11.97;;;8.67;;
7074;SDS011;3578;51.568;6.932;2023-07-09T03:14:19;9.57;;;8.33;;
7074;SDS011;3578;51.568;6.932;2023-07-09T03:16:46;12.33;;;8.80;;
7074;SDS011;3578;51.568;6.932;2023-07-09T03:19:13;13.47;;;8.77;;
7074;SDS011;3578;51.568;6.932;2023-07-09T03:21:41;11.40;;;7.53;;
7074;SDS011;3578;51.568;6.932;2023-07-09T03:24:08;8.73;;;7.70;;
7074;SDS011;3578;51.568;6.932;2023-07-09T03:26:35;10.23;;;8.10;;
7074;SDS011;3578;51.568;6.932;2023-07-09T03:29:02;10.73;;;8.20;;
7074;SDS011;3578;51.568;6.932;2023-07-09T03:31:29;13.60;;;8.27;;
7074;SDS011;3578;51.568;6.932;2023-07-09T03:33:59;11.03;;;8.07;;
7074;SDS011;3578;51.568;6.932;2023-07-09T03:36:27;13.43;;;8.27;;
7074;SDS011;3578;51.568;6.932;2023-07-09T03:38:55;9.30;;;8.13;;
7074;SDS011;3578;51.568;6.932;2023-07-09T03:41:22;9.03;;;7.93;;
7074;SDS011;3578;51.568;6.932;2023-07-09T03:43:50;8.63;;;7.37;;
7074;SDS011;3578;51.568;6.932;2023-07-09T03:46:18;11.43;;;8.00;;
7074;SDS011;3578;51.568;6.932;2023-07-09T03:48:45;10.40;;;7.80;;
7074;SDS011;3578;51.568;6.932;2023-07-09T03:51:12;10.90;;;7.73;;
7074;SDS011;3578;51.568;6.932;2023-07-09T03:53:39;10.20;;;9.20;;
7074;SDS011;3578;51.568;6.932;2023-07-09T03:56:08;11.20;;;9.20;;
7074;SDS011;3578;51.568;6.932;2023-07-09T03:58:35;11.70;;;9.10;;
7074;SDS011;3578;51.568;6.932;2023-07-09T04:01:02;12.77;;;8.60;;
7074;SDS011;3578;51.568;6.932;2023-07-09T04:03:29;10.87;;;9.20;;
7074;SDS011;3578;51.568;6.932;2023-07-09T04:05:56;11.47;;;8.50;;
7074;SDS011;3578;51.568;6.932;2023-07-09T04:08:23;10.10;;;9.10;;
7074;SDS011;3578;51.568;6.932;2023-07-09T04:10:52;9.70;;;8.50;;
7074;SDS011;3578;51.568;6.932;2023-07-09T04:13:22;10.57;;;8.47;;
7074;SDS011;3578;51.568;6.932;2023-07-09T04:15:49;10.33;;;7.60;;
7074;SDS011;3578;51.568;6.932;2023-07-09T04:18:16;8.67;;;7.77;;
7074;SDS011;3578;51.568;6.932;2023-07-09T04:20:43;9.37;;;8.43;;
7074;SDS011;3578;51.568;6.932;2023-07-09T04:23:15;8.13;;;6.90;;
7074;SDS011;3578;51.568;6.932;2023-07-09T04:25:42;11.50;;;8.57;;
7074;SDS011;3578;51.568;6.932;2023-07-09T04:28:09;10.63;;;8.37;;
7074;SDS011;3578;51.568;6.932;2023-07-09T04:30:37;12.40;;;8.37;;
7074;SDS011;3578;51.568;6.932;2023-07-09T04:33:04;8.63;;;7.80;;
7074;SDS011;3578;51.568;6.932;2023-07-09T04:35:31;11.30;;;8.20;;
7074;SDS011;3578;51.568;6.932;2023-07-09T04:37:58;8.83;;;7.93;;
7074;SDS011;3578;51.568;6.932;2023-07-09T04:40:25;7.20;;;6.60;;
7074;SDS011;3578;51.568;6.932;2023-07-09T04:42:52;9.00;;;7.10;;
7074;SDS011;3578;51.568;6.932;2023-07-09T04:45:19;10.83;;;6.80;;
7074;SDS011;3578;51.568;6.932;2023-07-09T04:47:48;8.60;;;7.30;;
7074;SDS011;3578;51.568;6.932;2023-07-09T04:50:15;11.60;;;7.17;;
7074;SDS011;3578;51.568;6.932;2023-07-09T04:52:42;7.80;;;7.07;;
7074;SDS011;3578;51.568;6.932;2023-07-09T04:55:09;8.60;;;6.63;;
7074;SDS011;3578;51.568;6.932;2023-07-09T04:57:36;7.73;;;6.90;;
7074;SDS011;3578;51.568;6.932;2023-07-09T05:00:03;8.13;;;7.13;;
7074;SDS011;3578;51.568;6.932;2023-07-09T05:02:32;7.23;;;6.50;;
7074;SDS011;3578;51.568;6.932;2023-07-09T05:05:01;7.83;;;6.57;;
7074;SDS011;3578;51.568;6.932;2023-07-09T05:07:28;8.70;;;6.70;;
7074;SDS011;3578;51.568;6.932;2023-07-09T05:09:56;7.77;;;6.00;;
7074;SDS011;3578;51.568;6.932;2023-07-09T05:12:25;8.40;;;6.50;;
7074;SDS011;3578;51.568;6.932;2023-07-09T05:14:54;7.17;;;6.47;;
7074;SDS011;3578;51.568;6.932;2023-07-09T05:17:21;8.83;;;7.60;;
7074;SDS011;3578;51.568;6.932;2023-07-09T05:19:49;8.97;;;7.20;;
7074;SDS011;3578;51.568;6.932;2023-07-09T05:22:18;8.07;;;7.27;;
7074;SDS011;3578;51.568;6.932;2023-07-09T05:24:45;7.43;;;6.73;;
7074;SDS011;3578;51.568;6.932;2023-07-09T05:27:12;8.20;;;6.40;;
7074;SDS011;3578;51.568;6.932;2023-07-09T05:29:39;9.20;;;6.90;;
7074;SDS011;3578;51.568;6.932;2023-07-09T05:32:06;7.50;;;6.40;;
7074;SDS011;3578;51.568;6.932;2023-07-09T05:34:33;9.60;;;7.50;;
7074;SDS011;3578;51.568;6.932;2023-07-09T05:37:00;6.17;;;5.57;;
7074;SDS011;3578;51.568;6.932;2023-07-09T05:39:28;8.23;;;6.93;;
7074;SDS011;3578;51.568;6.932;2023-07-09T05:41:55;6.47;;;5.93;;
7074;SDS011;3578;51.568;6.932;2023-07-09T05:44:22;8.17;;;6.33;;
7074;SDS011;3578;51.568;6.932;2023-07-09T05:46:49;6.80;;;6.10;;
7074;SDS011;3578;51.568;6.932;2023-07-09T05:49:16;7.43;;;6.53;;
7074;SDS011;3578;51.568;6.932;2023-07-09T05:51:44;12.37;;;6.63;;
7074;SDS011;3578;51.568;6.932;2023-07-09T05:54:11;8.50;;;7.30;;
7074;SDS011;3578;51.568;6.932;2023-07-09T05:56:40;6.80;;;5.70;;
7074;SDS011;3578;51.568;6.932;2023-07-09T05:59:07;7.03;;;6.40;;
7074;SDS011;3578;51.568;6.932;2023-07-09T06:01:35;8.00;;;6.73;;
7074;SDS011;3578;51.568;6.932;2023-07-09T06:04:02;8.87;;;6.40;;
7074;SDS011;3578;51.568;6.932;2023-07-09T06:06:29;8.47;;;7.00;;
7074;SDS011;3578;51.568;6.932;2023-07-09T06:08:56;8.43;;;7.20;;
7074;SDS011;3578;51.568;6.932;2023-07-09T06:11:23;7.60;;;6.73;;
7074;SDS011;3578;51.568;6.932;2023-07-09T06:13:51;7.67;;;6.37;;
7074;SDS011;3578;51.568;6.932;2023-07-09T06:16:19;7.07;;;6.37;;
7074;SDS011;3578;51.568;6.932;2023-07-09T06:18:46;8.37;;;6.87;;
7074;SDS011;3578;51.568;6.932;2023-07-09T06:21:13;7.83;;;6.77;;
7074;SDS011;3578;51.568;6.932;2023-07-09T06:23:40;7.97;;;6.70;;
7074;SDS011;3578;51.568;6.932;2023-07-09T06:26:07;7.70;;;6.73;;
7074;SDS011;3578;51.568;6.932;2023-07-09T06:28:34;11.40;;;6.53;;
7074;SDS011;3578;51.568;6.932;2023-07-09T06:31:02;7.50;;;6.80;;
7074;SDS011;3578;51.568;6.932;2023-07-09T06:33:29;10.77;;;7.00;;
7074;SDS011;3578;51.568;6.932;2023-07-09T06:35:57;9.33;;;7.53;;
7074;SDS011;3578;51.568;6.932;2023-07-09T06:38:27;8.03;;;7.03;;
7074;SDS011;3578;51.568;6.932;2023-07-09T06:40:55;7.03;;;6.37;;
7074;SDS011;3578;51.568;6.932;2023-07-09T06:43:22;11.63;;;7.67;;
7074;SDS011;3578;51.568;6.932;2023-07-09T06:45:51;7.50;;;6.80;;
7074;SDS011;3578;51.568;6.932;2023-07-09T06:48:21;8.00;;;5.97;;
7074;SDS011;3578;51.568;6.932;2023-07-09T06:50:51;9.97;;;6.43;;
7074;SDS011;3578;51.568;6.932;2023-07-09T06:53:18;11.03;;;6.97;;
7074;SDS011;3578;51.568;6.932;2023-07-09T06:55:45;8.40;;;7.07;;
7074;SDS011;3578;51.568;6.932;2023-07-09T06:58:14;10.17;;;7.70;;
7074;SDS011;3578;51.568;6.932;2023-07-09T07:00:42;7.60;;;6.60;;
7074;SDS011;3578;51.568;6.932;2023-07-09T07:03:09;8.63;;;7.20;;
7074;SDS011;3578;51.568;6.932;2023-07-09T07:05:42;11.93;;;7.00;;
7074;SDS011;3578;51.568;6.932;2023-07-09T07:08:10;7.37;;;6.07;;
7074;SDS011;3578;51.568;6.932;2023-07-09T07:10:39;9.40;;;6.57;;
7074;SDS011;3578;51.568;6.932;2023-07-09T07:13:06;11.30;;;7.17;;
7074;SDS011;3578;51.568;6.932;2023-07-09T07:15:36;9.17;;;6.60;;
7074;SDS011;3578;51.568;6.932;2023-07-09T07:18:03;9.80;;;7.00;;
7074;SDS011;3578;51.568;6.932;2023-07-09T07:20:30;9.23;;;6.60;;
7074;SDS011;3578;51.568;6.932;2023-07-09T07:22:59;7.53;;;6.73;;
7074;SDS011;3578;51.568;6.932;2023-07-09T07:25:26;8.20;;;6.83;;
7074;SDS011;3578;51.568;6.932;2023-07-09T07:27:55;7.73;;;5.77;;
7074;SDS011;3578;51.568;6.932;2023-07-09T07:30:22;6.67;;;6.07;;
7074;SDS011;3578;51.568;6.932;2023-07-09T07:32:49;7.60;;;6.80;;
7074;SDS011;3578;51.568;6.932;2023-07-09T07:35:16;9.17;;;7.23;;
7074;SDS011;3578;51.568;6.932;2023-07-09T07:37:44;8.70;;;6.90;;
7074;SDS011;3578;51.568;6.932;2023-07-09T07:40:12;9.40;;;6.67;;
7074;SDS011;3578;51.568;6.932;2023-07-09T07:42:39;10.03;;;6.57;;
7074;SDS011;3578;51.568;6.932;2023-07-09T07:45:07;7.97;;;6.70;;
7074;SDS011;3578;51.568;6.932;2023-07-09T07:47:35;10.27;;;7.00;;
7074;SDS011;3578;51.568;6.932;2023-07-09T07:50:04;8.20;;;6.30;;
7074;SDS011;3578;51.568;6.932;2023-07-09T07:52:33;9.90;;;6.40;;
7074;SDS011;3578;51.568;6.932;2023-07-09T07:55:02;8.27;;;6.97;;
7074;SDS011;3578;51.568;6.932;2023-07-09T07:57:32;10.77;;;6.73;;
7074;SDS011;3578;51.568;6.932;2023-07-09T07:59:59;9.93;;;6.60;;
7074;SDS011;3578;51.568;6.932;2023-07-09T08:02:26;8.10;;;6.50;;
7074;SDS011;3578;51.568;6.932;2023-07-09T08:04:54;7.37;;;6.53;;
7074;SDS011;3578;51.568;6.932;2023-07-09T08:07:21;7.53;;;6.70;;
7074;SDS011;3578;51.568;6.932;2023-07-09T08:09:48;8.67;;;6.00;;
7074;SDS011;3578;51.568;6.932;2023-07-09T08:12:15;8.53;;;6.83;;
7074;SDS011;3578;51.568;6.932;2023-07-09T08:14:44;8.60;;;6.37;;
7074;SDS011;3578;51.568;6.932;2023-07-09T08:17:12;10.23;;;6.27;;
7074;SDS011;3578;51.568;6.932;2023-07-09T08:19:45;9.63;;;7.63;;
7074;SDS011;3578;51.568;6.932;2023-07-09T08:22:15;13.53;;;6.93;;
7074;SDS011;3578;51.568;6.932;2023-07-09T08:24:42;12.23;;;6.90;;
7074;SDS011;3578;51.568;6.932;2023-07-09T08:27:09;8.40;;;6.40;;
7074;SDS011;3578;51.568;6.932;2023-07-09T08:29:36;7.17;;;6.33;;
7074;SDS011;3578;51.568;6.932;2023-07-09T08:32:06;8.80;;;6.30;;
7074;SDS011;3578;51.568;6.932;2023-07-09T08:34:35;10.50;;;6.40;;
7074;SDS011;3578;51.568;6.932;2023-07-09T08:37:03;9.30;;;6.70;;
7074;SDS011;3578;51.568;6.932;2023-07-09T08:39:31;16.70;;;7.60;;
7074;SDS011;3578;51.568;6.932;2023-07-09T08:41:59;15.03;;;7.60;;
7074;SDS011;3578;51.568;6.932;2023-07-09T08:47:33;10.47;;;7.30;;
7074;SDS011;3578;51.568;6.932;2023-07-09T08:50:14;9.10;;;7.47;;
7074;SDS011;3578;51.568;6.932;2023-07-09T08:52:46;8.50;;;7.03;;
7074;SDS011;3578;51.568;6.932;2023-07-09T08:55:17;8.60;;;7.17;;
7074;SDS011;3578;51.568;6.932;2023-07-09T08:57:46;8.27;;;7.00;;
7074;SDS011;3578;51.568;6.932;2023-07-09T09:00:17;8.63;;;5.90;;
7074;SDS011;3578;51.568;6.932;2023-07-09T09:02:56;7.93;;;6.50;;
7074;SDS011;3578;51.568;6.932;2023-07-09T09:05:26;8.47;;;7.03;;
7074;SDS011;3578;51.568;6.932;2023-07-09T09:07:56;9.87;;;6.87;;
7074;SDS011;3578;51.568;6.932;2023-07-09T09:10:29;9.17;;;6.67;;
7074;SDS011;3578;51.568;6.932;2023-07-09T09:13:05;8.43;;;6.37;;
7074;SDS011;3578;51.568;6.932;2023-07-09T09:15:37;7.57;;;6.27;;
7074;SDS011;3578;51.568;6.932;2023-07-09T09:18:20;7.00;;;5.70;;
7074;SDS011;3578;51.568;6.932;2023-07-09T09:20:52;6.50;;;5.87;;
7074;SDS011;3578;51.568;6.932;2023-07-09T09:23:25;7.30;;;6.17;;
7074;SDS011;3578;51.568;6.932;2023-07-09T09:26:02;7.03;;;6.00;;
7074;SDS011;3578;51.568;6.932;2023-07-09T09:28:40;8.23;;;6.27;;
7074;SDS011;3578;51.568;6.932;2023-07-09T09:31:08;9.23;;;5.67;;
7074;SDS011;3578;51.568;6.932;2023-07-09T09:33:40;8.37;;;5.40;;
7074;SDS011;3578;51.568;6.932;2023-07-09T09:36:11;9.10;;;5.90;;
7074;SDS011;3578;51.568;6.932;2023-07-09T09:38:42;8.67;;;5.60;;
7074;SDS011;3578;51.568;6.932;2023-07-09T09:41:12;9.47;;;6.07;;
7074;SDS011;3578;51.568;6.932;2023-07-09T09:43:42;7.00;;;6.00;;
7074;SDS011;3578;51.568;6.932;2023-07-09T09:46:20;10.80;;;6.37;;
7074;SDS011;3578;51.568;6.932;2023-07-09T09:48:53;11.60;;;5.70;;
7074;SDS011;3578;51.568;6.932;2023-07-09T09:51:22;8.03;;;5.70;;
7074;SDS011;3578;51.568;6.932;2023-07-09T09:53:51;10.80;;;6.00;;
7074;SDS011;3578;51.568;6.932;2023-07-09T09:56:25;7.90;;;5.30;;
7074;SDS011;3578;51.568;6.932;2023-07-09T09:58:56;10.10;;;6.60;;
7074;SDS011;3578;51.568;6.932;2023-07-09T10:01:26;9.97;;;5.50;;
7074;SDS011;3578;51.568;6.932;2023-07-09T10:03:57;14.20;;;6.20;;
7074;SDS011;3578;51.568;6.932;2023-07-09T10:06:28;8.33;;;6.27;;
7074;SDS011;3578;51.568;6.932;2023-07-09T10:09:05;6.87;;;5.93;;
7074;SDS011;3578;51.568;6.932;2023-07-09T10:11:45;9.00;;;5.07;;
7074;SDS011;3578;51.568;6.932;2023-07-09T10:14:20;15.83;;;5.60;;
7074;SDS011;3578;51.568;6.932;2023-07-09T10:17:00;5.47;;;4.97;;
7074;SDS011;3578;51.568;6.932;2023-07-09T10:19:42;8.33;;;4.50;;
7074;SDS011;3578;51.568;6.932;2023-07-09T10:22:20;4.50;;;4.07;;
7074;SDS011;3578;51.568;6.932;2023-07-09T10:24:59;5.70;;;4.77;;
7074;SDS011;3578;51.568;6.932;2023-07-09T10:27:39;6.87;;;4.57;;
7074;SDS011;3578;51.568;6.932;2023-07-09T10:30:32;5.57;;;4.43;;
7074;SDS011;3578;51.568;6.932;2023-07-09T10:33:10;5.57;;;4.90;;
7074;SDS011;3578;51.568;6.932;2023-07-09T10:35:44;7.07;;;4.17;;
7074;SDS011;3578;51.568;6.932;2023-07-09T10:38:23;6.00;;;4.03;;
7074;SDS011;3578;51.568;6.932;2023-07-09T10:41:06;4.67;;;3.90;;
7074;SDS011;3578;51.568;6.932;2023-07-09T10:43:38;8.03;;;4.30;;
7074;SDS011;3578;51.568;6.932;2023-07-09T10:46:13;6.97;;;4.73;;
7074;SDS011;3578;51.568;6.932;2023-07-09T10:48:43;5.13;;;4.60;;
7074;SDS011;3578;51.568;6.932;2023-07-09T10:51:19;11.50;;;5.80;;
7074;SDS011;3578;51.568;6.932;2023-07-09T10:53:56;5.50;;;4.20;;
7074;SDS011;3578;51.568;6.932;2023-07-09T10:56:30;5.00;;;3.70;;
7074;SDS011;3578;51.568;6.932;2023-07-09T10:59:04;4.93;;;4.13;;
7074;SDS011;3578;51.568;6.932;2023-07-09T11:01:45;4.07;;;3.60;;
7074;SDS011;3578;51.568;6.932;2023-07-09T11:04:19;5.13;;;3.87;;
7074;SDS011;3578;51.568;6.932;2023-07-09T11:06:58;4.93;;;3.87;;
7074;SDS011;3578;51.568;6.932;2023-07-09T11:09:30;5.30;;;4.80;;
7074;SDS011;3578;51.568;6.932;2023-07-09T11:11:59;3.97;;;3.50;;
7074;SDS011;3578;51.568;6.932;2023-07-09T11:14:32;8.60;;;3.83;;
7074;SDS011;3578;51.568;6.932;2023-07-09T11:17:05;5.43;;;3.90;;
7074;SDS011;3578;51.568;6.932;2023-07-09T11:19:40;4.13;;;3.73;;
7074;SDS011;3578;51.568;6.932;2023-07-09T11:22:15;5.80;;;3.40;;
7074;SDS011;3578;51.568;6.932;2023-07-09T11:24:47;3.63;;;3.10;;
7074;SDS011;3578;51.568;6.932;2023-07-09T11:27:17;3.93;;;3.20;;
7074;SDS011;3578;51.568;6.932;2023-07-09T11:29:48;5.50;;;3.53;;
7074;SDS011;3578;51.568;6.932;2023-07-09T11:32:25;5.43;;;3.50;;
7074;SDS011;3578;51.568;6.932;2023-07-09T11:34:53;6.40;;;3.70;;
7074;SDS011;3578;51.568;6.932;2023-07-09T11:37:32;4.27;;;3.77;;
7074;SDS011;3578;51.568;6.932;2023-07-09T11:40:12;5.60;;;3.50;;
7074;SDS011;3578;51.568;6.932;2023-07-09T11:42:46;3.90;;;3.60;;
7074;SDS011;3578;51.568;6.932;2023-07-09T11:45:19;5.87;;;4.00;;
7074;SDS011;3578;51.568;6.932;2023-07-09T11:47:53;7.27;;;4.20;;
7074;SDS011;3578;51.568;6.932;2023-07-09T11:50:30;3.70;;;3.30;;
7074;SDS011;3578;51.568;6.932;2023-07-09T11:53:03;3.97;;;3.13;;
7074;SDS011;3578;51.568;6.932;2023-07-09T11:55:54;4.90;;;3.60;;
7074;SDS011;3578;51.568;6.932;2023-07-09T11:58:21;4.57;;;4.17;;
7074;SDS011;3578;51.568;6.932;2023-07-09T12:00:48;4.40;;;2.87;;
7074;SDS011;3578;51.568;6.932;2023-07-09T12:03:19;4.07;;;3.40;;
7074;SDS011;3578;51.568;6.932;2023-07-09T12:05:50;5.27;;;4.50;;
7074;SDS011;3578;51.568;6.932;2023-07-09T12:08:23;3.30;;;3.10;;
7074;SDS011;3578;51.568;6.932;2023-07-09T12:10:57;6.43;;;3.20;;
7074;SDS011;3578;51.568;6.932;2023-07-09T12:13:24;5.70;;;3.70;;
7074;SDS011;3578;51.568;6.932;2023-07-09T12:15:51;3.13;;;2.93;;
7074;SDS011;3578;51.568;6.932;2023-07-09T12:18:18;3.67;;;2.73;;
7074;SDS011;3578;51.568;6.932;2023-07-09T12:20:47;4.00;;;3.50;;
7074;SDS011;3578;51.568;6.932;2023-07-09T12:23:19;4.00;;;3.40;;
7074;SDS011;3578;51.568;6.932;2023-07-09T12:25:51;3.47;;;3.10;;
7074;SDS011;3578;51.568;6.932;2023-07-09T12:28:19;4.77;;;3.37;;
7074;SDS011;3578;51.568;6.932;2023-07-09T12:30:48;3.20;;;2.90;;
7074;SDS011;3578;51.568;6.932;2023-07-09T12:33:18;4.77;;;3.60;;
7074;SDS011;3578;51.568;6.932;2023-07-09T12:35:47;3.90;;;3.40;;
7074;SDS011;3578;51.568;6.932;2023-07-09T12:38:23;3.80;;;3.50;;
7074;SDS011;3578;51.568;6.932;2023-07-09T12:40:54;2.77;;;2.60;;
7074;SDS011;3578;51.568;6.932;2023-07-09T12:43:28;4.13;;;3.10;;
7074;SDS011;3578;51.568;6.932;2023-07-09T12:45:58;5.00;;;3.60;;
7074;SDS011;3578;51.568;6.932;2023-07-09T12:48:26;4.40;;;3.07;;
7074;SDS011;3578;51.568;6.932;2023-07-09T12:50:56;4.37;;;3.80;;
7074;SDS011;3578;51.568;6.932;2023-07-09T12:53:27;4.20;;;3.73;;
7074;SDS011;3578;51.568;6.932;2023-07-09T12:55:56;6.23;;;3.13;;
7074;SDS011;3578;51.568;6.932;2023-07-09T12:58:27;6.07;;;3.97;;
7074;SDS011;3578;51.568;6.932;2023-07-09T13:00:56;4.73;;;3.20;;
7074;SDS011;3578;51.568;6.932;2023-07-09T13:03:26;4.07;;;3.67;;
7074;SDS011;3578;51.568;6.932;2023-07-09T13:05:56;6.67;;;3.90;;
7074;SDS011;3578;51.568;6.932;2023-07-09T13:08:27;5.87;;;3.30;;
7074;SDS011;3578;51.568;6.932;2023-07-09T13:10:57;4.03;;;3.63;;
7074;SDS011;3578;51.568;6.932;2023-07-09T13:13:25;5.77;;;3.73;;
7074;SDS011;3578;51.568;6.932;2023-07-09T13:15:54;3.80;;;3.50;;
7074;SDS011;3578;51.568;6.932;2023-07-09T13:18:24;3.50;;;3.30;;
7074;SDS011;3578;51.568;6.932;2023-07-09T13:20:52;5.97;;;3.40;;
7074;SDS011;3578;51.568;6.932;2023-07-09T13:23:22;5.80;;;3.20;;
7074;SDS011;3578;51.568;6.932;2023-07-09T13:25:53;4.53;;;3.23;;
7074;SDS011;3578;51.568;6.932;2023-07-09T13:28:24;6.03;;;3.27;;
7074;SDS011;3578;51.568;6.932;2023-07-09T13:30:53;5.53;;;3.50;;
7074;SDS011;3578;51.568;6.932;2023-07-09T13:33:24;6.57;;;3.43;;
7074;SDS011;3578;51.568;6.932;2023-07-09T13:35:52;4.40;;;3.47;;
7074;SDS011;3578;51.568;6.932;2023-07-09T13:38:21;4.77;;;3.43;;
7074;SDS011;3578;51.568;6.932;2023-07-09T13:40:50;4.13;;;3.80;;
7074;SDS011;3578;51.568;6.932;2023-07-09T13:43:24;4.60;;;3.70;;
7074;SDS011;3578;51.568;6.932;2023-07-09T13:45:55;8.03;;;3.80;;
7074;SDS011;3578;51.568;6.932;2023-07-09T13:48:22;4.30;;;3.70;;
7074;SDS011;3578;51.568;6.932;2023-07-09T13:50:52;4.23;;;3.83;;
7074;SDS011;3578;51.568;6.932;2023-07-09T13:53:20;4.50;;;4.10;;
7074;SDS011;3578;51.568;6.932;2023-07-09T13:55:51;4.33;;;3.93;;
7074;SDS011;3578;51.568;6.932;2023-07-09T13:58:22;6.47;;;4.17;;
7074;SDS011;3578;51.568;6.932;2023-07-09T14:00:57;5.00;;;4.00;;
7074;SDS011;3578;51.568;6.932;2023-07-09T14:03:30;4.33;;;3.93;;
7074;SDS011;3578;51.568;6.932;2023-07-09T14:05:59;4.30;;;3.90;;
7074;SDS011;3578;51.568;6.932;2023-07-09T14:08:26;5.90;;;4.90;;
7074;SDS011;3578;51.568;6.932;2023-07-09T14:10:54;5.10;;;4.20;;
7074;SDS011;3578;51.568;6.932;2023-07-09T14:13:23;4.00;;;3.70;;
7074;SDS011;3578;51.568;6.932;2023-07-09T14:15:51;5.20;;;4.80;;
7074;SDS011;3578;51.568;6.932;2023-07-09T14:18:18;10.20;;;5.10;;
7074;SDS011;3578;51.568;6.932;2023-07-09T14:20:47;4.63;;;4.07;;
7074;SDS011;3578;51.568;6.932;2023-07-09T14:23:16;9.30;;;5.13;;
7074;SDS011;3578;51.568;6.932;2023-07-09T14:25:45;9.00;;;4.63;;
7074;SDS011;3578;51.568;6.932;2023-07-09T14:28:14;7.67;;;5.53;;
7074;SDS011;3578;51.568;6.932;2023-07-09T14:30:44;10.00;;;4.77;;
7074;SDS011;3578;51.568;6.932;2023-07-09T14:33:14;9.57;;;6.10;;
7074;SDS011;3578;51.568;6.932;2023-07-09T14:35:43;9.57;;;4.30;;
7074;SDS011;3578;51.568;6.932;2023-07-09T14:38:14;6.30;;;4.93;;
7074;SDS011;3578;51.568;6.932;2023-07-09T14:40:44;6.63;;;4.50;;
7074;SDS011;3578;51.568;6.932;2023-07-09T14:43:11;10.53;;;4.90;;
7074;SDS011;3578;51.568;6.932;2023-07-09T14:45:40;10.60;;;5.33;;
7074;SDS011;3578;51.568;6.932;2023-07-09T14:48:09;7.83;;;5.70;;
7074;SDS011;3578;51.568;6.932;2023-07-09T14:50:37;6.40;;;5.50;;
7074;SDS011;3578;51.568;6.932;2023-07-09T14:53:05;11.40;;;5.40;;
7074;SDS011;3578;51.568;6.932;2023-07-09T14:55:41;10.97;;;5.70;;
7074;SDS011;3578;51.568;6.932;2023-07-09T14:58:14;8.27;;;5.40;;
7074;SDS011;3578;51.568;6.932;2023-07-09T15:00:43;10.93;;;5.50;;
7074;SDS011;3578;51.568;6.932;2023-07-09T15:03:11;11.90;;;6.00;;
7074;SDS011;3578;51.568;6.932;2023-07-09T15:05:44;18.70;;;6.63;;
7074;SDS011;3578;51.568;6.932;2023-07-09T15:08:14;10.50;;;5.60;;
7074;SDS011;3578;51.568;6.932;2023-07-09T15:10:43;9.20;;;6.03;;
7074;SDS011;3578;51.568;6.932;2023-07-09T15:13:16;10.20;;;5.83;;
7074;SDS011;3578;51.568;6.932;2023-07-09T15:15:44;11.73;;;7.20;;
7074;SDS011;3578;51.568;6.932;2023-07-09T15:18:13;9.87;;;6.10;;
7074;SDS011;3578;51.568;6.932;2023-07-09T15:20:43;11.00;;;6.70;;
7074;SDS011;3578;51.568;6.932;2023-07-09T15:23:15;14.47;;;6.17;;
7074;SDS011;3578;51.568;6.932;2023-07-09T15:25:42;10.33;;;6.37;;
7074;SDS011;3578;51.568;6.932;2023-07-09T15:28:10;8.80;;;6.67;;
7074;SDS011;3578;51.568;6.932;2023-07-09T15:30:39;11.43;;;7.00;;
7074;SDS011;3578;51.568;6.932;2023-07-09T15:33:08;9.47;;;6.80;;